sensor_id;sensor_type;location;lat;lon;timestamp;P1;durP1;ratioP1;P2;durP2;ratioP2
17985;SDS011;9118;48.122;11.546;2023-03-11T00:00:58;1.87;;;1.70;;
17985;SDS011;9118;48.122;11.546;2023-03-11T00:03:28;1.60;;;1.50;;
17985;SDS011;9118;48.122;11.546;2023-03-11T00:05:58;1.60;;;1.50;;
17985;SDS011;9118;48.122;11.546;2023-03-11T00:08:26;1.37;;;1.27;;
17985;SDS011;9118;48.122;11.546;2023-03-11T00:10:54;1.80;;;1.70;;
17985;SDS011;9118;48.122;11.546;2023-03-11T00:13:23;1.97;;;1.60;;
17985;SDS011;9118;48.122;11.546;2023-03-11T00:15:53;1.77;;;1.60;;
17985;SDS011;9118;48.122;11.546;2023-03-11T00:18:25;2.07;;;1.83;;
17985;SDS011;9118;48.122;11.546;2023-03-11T00:20:56;1.80;;;1.50;;
17985;SDS011;9118;48.122;11.546;2023-03-11T00:23:24;1.60;;;1.50;;
17985;SDS011;9118;48.122;11.546;2023-03-11T00:25:53;1.60;;;1.50;;
17985;SDS011;9118;48.122;11.546;2023-03-11T00:28:23;1.90;;;1.70;;
17985;SDS011;9118;48.122;11.546;2023-03-11T00:30:51;1.50;;;1.40;;
17985;SDS011;9118;48.122;11.546;2023-03-11T00:33:19;1.50;;;1.40;;
17985;SDS011;9118;48.122;11.546;2023-03-11T00:35:49;1.90;;;1.80;;
17985;SDS011;9118;48.122;11.546;2023-03-11T00:38:17;1.40;;;1.30;;
17985;SDS011;9118;48.122;11.546;2023-03-11T00:40:45;1.70;;;1.30;;
17985;SDS011;9118;48.122;11.546;2023-03-11T00:43:15;1.60;;;1.50;;
17985;SDS011;9118;48.122;11.546;2023-03-11T00:45:44;1.40;;;1.30;;
17985;SDS011;9118;48.122;11.546;2023-03-11T00:48:12;1.53;;;1.43;;
17985;SDS011;9118;48.122;11.546;2023-03-11T00:50:39;1.77;;;1.40;;
17985;SDS011;9118;48.122;11.546;2023-03-11T00:53:10;1.20;;;1.10;;
17985;SDS011;9118;48.122;11.546;2023-03-11T00:55:37;1.50;;;1.40;;
17985;SDS011;9118;48.122;11.546;2023-03-11T00:58:05;2.10;;;1.67;;
17985;SDS011;9118;48.122;11.546;2023-03-11T01:00:36;1.47;;;1.37;;
17985;SDS011;9118;48.122;11.546;2023-03-11T01:03:03;1.40;;;1.30;;
17985;SDS011;9118;48.122;11.546;2023-03-11T01:05:31;2.20;;;1.67;;
17985;SDS011;9118;48.122;11.546;2023-03-11T01:07:59;1.50;;;1.40;;
17985;SDS011;9118;48.122;11.546;2023-03-11T01:10:29;1.60;;;1.50;;
17985;SDS011;9118;48.122;11.546;2023-03-11T01:12:58;1.50;;;1.40;;
17985;SDS011;9118;48.122;11.546;2023-03-11T01:15:26;1.50;;;1.40;;
17985;SDS011;9118;48.122;11.546;2023-03-11T01:17:55;1.17;;;1.17;;
17985;SDS011;9118;48.122;11.546;2023-03-11T01:20:23;1.30;;;1.20;;
17985;SDS011;9118;48.122;11.546;2023-03-11T01:22:50;1.40;;;1.30;;
17985;SDS011;9118;48.122;11.546;2023-03-11T01:25:19;1.80;;;1.57;;
17985;SDS011;9118;48.122;11.546;2023-03-11T01:27:48;1.67;;;1.40;;
17985;SDS011;9118;48.122;11.546;2023-03-11T01:30:18;1.87;;;1.43;;
17985;SDS011;9118;48.122;11.546;2023-03-11T01:32:46;1.60;;;1.50;;
17985;SDS011;9118;48.122;11.546;2023-03-11T01:35:15;1.50;;;1.40;;
17985;SDS011;9118;48.122;11.546;2023-03-11T01:37:43;3.03;;;1.50;;
17985;SDS011;9118;48.122;11.546;2023-03-11T01:40:12;1.87;;;1.60;;
17985;SDS011;9118;48.122;11.546;2023-03-11T01:42:56;3.43;;;1.70;;
17985;SDS011;9118;48.122;11.546;2023-03-11T01:45:32;2.13;;;1.40;;
17985;SDS011;9118;48.122;11.546;2023-03-11T01:48:06;1.70;;;1.50;;
17985;SDS011;9118;48.122;11.546;2023-03-11T01:50:35;1.63;;;1.53;;
17985;SDS011;9118;48.122;11.546;2023-03-11T01:53:03;1.40;;;1.30;;
17985;SDS011;9118;48.122;11.546;2023-03-11T01:55:31;1.50;;;1.37;;
17985;SDS011;9118;48.122;11.546;2023-03-11T01:58:01;1.47;;;1.37;;
17985;SDS011;9118;48.122;11.546;2023-03-11T02:00:34;1.60;;;1.50;;
17985;SDS011;9118;48.122;11.546;2023-03-11T02:03:05;1.40;;;1.30;;
17985;SDS011;9118;48.122;11.546;2023-03-11T02:05:36;2.93;;;1.63;;
17985;SDS011;9118;48.122;11.546;2023-03-11T02:08:05;1.40;;;1.30;;
17985;SDS011;9118;48.122;11.546;2023-03-11T02:10:33;1.60;;;1.50;;
17985;SDS011;9118;48.122;11.546;2023-03-11T02:13:08;1.43;;;1.33;;
17985;SDS011;9118;48.122;11.546;2023-03-11T02:15:36;1.50;;;1.40;;
17985;SDS011;9118;48.122;11.546;2023-03-11T02:18:04;1.60;;;1.50;;
17985;SDS011;9118;48.122;11.546;2023-03-11T02:20:37;1.70;;;1.40;;
17985;SDS011;9118;48.122;11.546;2023-03-11T02:23:09;1.60;;;1.50;;
17985;SDS011;9118;48.122;11.546;2023-03-11T02:25:43;1.50;;;1.40;;
17985;SDS011;9118;48.122;11.546;2023-03-11T02:28:18;1.50;;;1.40;;
17985;SDS011;9118;48.122;11.546;2023-03-11T02:30:47;1.47;;;1.37;;
17985;SDS011;9118;48.122;11.546;2023-03-11T02:33:18;1.50;;;1.40;;
17985;SDS011;9118;48.122;11.546;2023-03-11T02:35:46;1.47;;;1.37;;
17985;SDS011;9118;48.122;11.546;2023-03-11T02:38:14;1.83;;;1.53;;
17985;SDS011;9118;48.122;11.546;2023-03-11T02:40:51;2.37;;;1.70;;
17985;SDS011;9118;48.122;11.546;2023-03-11T02:43:27;1.30;;;1.20;;
17985;SDS011;9118;48.122;11.546;2023-03-11T02:45:59;1.40;;;1.13;;
17985;SDS011;9118;48.122;11.546;2023-03-11T02:48:27;1.40;;;1.30;;
17985;SDS011;9118;48.122;11.546;2023-03-11T02:50:56;3.80;;;1.33;;
17985;SDS011;9118;48.122;11.546;2023-03-11T02:53:25;2.70;;;1.57;;
17985;SDS011;9118;48.122;11.546;2023-03-11T02:55:57;4.83;;;1.50;;
17985;SDS011;9118;48.122;11.546;2023-03-11T02:58:29;1.43;;;1.33;;
17985;SDS011;9118;48.122;11.546;2023-03-11T03:00:56;1.43;;;1.10;;
17985;SDS011;9118;48.122;11.546;2023-03-11T03:03:23;2.80;;;1.47;;
17985;SDS011;9118;48.122;11.546;2023-03-11T03:05:51;1.53;;;1.43;;
17985;SDS011;9118;48.122;11.546;2023-03-11T03:08:18;2.97;;;1.37;;
17985;SDS011;9118;48.122;11.546;2023-03-11T03:10:45;1.40;;;1.30;;
17985;SDS011;9118;48.122;11.546;2023-03-11T03:13:13;1.40;;;1.30;;
17985;SDS011;9118;48.122;11.546;2023-03-11T03:15:41;1.40;;;1.30;;
17985;SDS011;9118;48.122;11.546;2023-03-11T03:18:08;1.30;;;1.20;;
17985;SDS011;9118;48.122;11.546;2023-03-11T03:20:36;1.77;;;1.30;;
17985;SDS011;9118;48.122;11.546;2023-03-11T03:23:03;1.50;;;1.40;;
17985;SDS011;9118;48.122;11.546;2023-03-11T03:25:31;1.57;;;1.47;;
17985;SDS011;9118;48.122;11.546;2023-03-11T03:27:59;1.40;;;1.20;;
17985;SDS011;9118;48.122;11.546;2023-03-11T03:30:26;2.60;;;1.33;;
17985;SDS011;9118;48.122;11.546;2023-03-11T03:32:56;2.07;;;1.87;;
17985;SDS011;9118;48.122;11.546;2023-03-11T03:35:23;1.60;;;1.30;;
17985;SDS011;9118;48.122;11.546;2023-03-11T03:37:50;1.50;;;1.40;;
17985;SDS011;9118;48.122;11.546;2023-03-11T03:40:19;1.30;;;1.20;;
17985;SDS011;9118;48.122;11.546;2023-03-11T03:42:46;1.50;;;1.30;;
17985;SDS011;9118;48.122;11.546;2023-03-11T03:45:14;1.27;;;1.17;;
17985;SDS011;9118;48.122;11.546;2023-03-11T03:47:41;1.10;;;1.10;;
17985;SDS011;9118;48.122;11.546;2023-03-11T03:50:12;1.83;;;1.30;;
17985;SDS011;9118;48.122;11.546;2023-03-11T03:52:40;1.23;;;1.20;;
17985;SDS011;9118;48.122;11.546;2023-03-11T03:55:11;3.00;;;1.40;;
17985;SDS011;9118;48.122;11.546;2023-03-11T03:57:40;1.30;;;1.17;;
17985;SDS011;9118;48.122;11.546;2023-03-11T04:00:07;1.27;;;1.17;;
17985;SDS011;9118;48.122;11.546;2023-03-11T04:02:35;3.17;;;1.13;;
17985;SDS011;9118;48.122;11.546;2023-03-11T04:05:02;1.33;;;1.23;;
17985;SDS011;9118;48.122;11.546;2023-03-11T04:07:33;2.57;;;1.23;;
17985;SDS011;9118;48.122;11.546;2023-03-11T04:10:01;2.93;;;1.20;;
17985;SDS011;9118;48.122;11.546;2023-03-11T04:12:28;1.10;;;1.10;;
17985;SDS011;9118;48.122;11.546;2023-03-11T04:14:56;1.50;;;1.40;;
17985;SDS011;9118;48.122;11.546;2023-03-11T04:17:23;1.43;;;1.30;;
17985;SDS011;9118;48.122;11.546;2023-03-11T04:19:51;1.30;;;1.20;;
17985;SDS011;9118;48.122;11.546;2023-03-11T04:22:19;2.97;;;1.23;;
17985;SDS011;9118;48.122;11.546;2023-03-11T04:24:47;2.03;;;1.50;;
17985;SDS011;9118;48.122;11.546;2023-03-11T04:27:14;6.60;;;1.30;;
17985;SDS011;9118;48.122;11.546;2023-03-11T04:29:42;1.57;;;1.30;;
17985;SDS011;9118;48.122;11.546;2023-03-11T04:32:09;1.00;;;1.00;;
17985;SDS011;9118;48.122;11.546;2023-03-11T04:34:37;2.53;;;1.50;;
17985;SDS011;9118;48.122;11.546;2023-03-11T04:37:05;1.60;;;1.50;;
17985;SDS011;9118;48.122;11.546;2023-03-11T04:39:32;1.30;;;1.20;;
17985;SDS011;9118;48.122;11.546;2023-03-11T04:42:00;2.27;;;1.70;;
17985;SDS011;9118;48.122;11.546;2023-03-11T04:44:28;2.17;;;1.53;;
17985;SDS011;9118;48.122;11.546;2023-03-11T04:46:55;2.50;;;1.40;;
17985;SDS011;9118;48.122;11.546;2023-03-11T04:49:23;3.10;;;1.47;;
17985;SDS011;9118;48.122;11.546;2023-03-11T04:51:50;2.20;;;2.00;;
17985;SDS011;9118;48.122;11.546;2023-03-11T04:54:18;3.10;;;1.50;;
17985;SDS011;9118;48.122;11.546;2023-03-11T04:56:45;1.50;;;1.40;;
17985;SDS011;9118;48.122;11.546;2023-03-11T04:59:13;3.83;;;1.40;;
17985;SDS011;9118;48.122;11.546;2023-03-11T05:01:40;1.50;;;1.40;;
17985;SDS011;9118;48.122;11.546;2023-03-11T05:04:07;1.83;;;1.47;;
17985;SDS011;9118;48.122;11.546;2023-03-11T05:06:37;1.47;;;1.30;;
17985;SDS011;9118;48.122;11.546;2023-03-11T05:09:04;2.47;;;1.50;;
17985;SDS011;9118;48.122;11.546;2023-03-11T05:11:31;2.00;;;1.60;;
17985;SDS011;9118;48.122;11.546;2023-03-11T05:14:00;3.17;;;1.70;;
17985;SDS011;9118;48.122;11.546;2023-03-11T05:16:28;1.43;;;1.30;;
17985;SDS011;9118;48.122;11.546;2023-03-11T05:18:56;2.10;;;1.47;;
17985;SDS011;9118;48.122;11.546;2023-03-11T05:21:24;2.00;;;1.60;;
17985;SDS011;9118;48.122;11.546;2023-03-11T05:23:51;3.97;;;1.43;;
17985;SDS011;9118;48.122;11.546;2023-03-11T05:26:19;1.50;;;1.40;;
17985;SDS011;9118;48.122;11.546;2023-03-11T05:28:46;1.77;;;1.50;;
17985;SDS011;9118;48.122;11.546;2023-03-11T05:31:15;1.83;;;1.60;;
17985;SDS011;9118;48.122;11.546;2023-03-11T05:33:44;1.97;;;1.60;;
17985;SDS011;9118;48.122;11.546;2023-03-11T05:36:11;1.97;;;1.50;;
17985;SDS011;9118;48.122;11.546;2023-03-11T05:38:39;1.80;;;1.60;;
17985;SDS011;9118;48.122;11.546;2023-03-11T05:41:06;2.50;;;1.63;;
17985;SDS011;9118;48.122;11.546;2023-03-11T05:43:34;3.10;;;1.40;;
17985;SDS011;9118;48.122;11.546;2023-03-11T05:46:02;2.30;;;1.50;;
17985;SDS011;9118;48.122;11.546;2023-03-11T05:48:30;1.70;;;1.60;;
17985;SDS011;9118;48.122;11.546;2023-03-11T05:50:59;2.03;;;1.80;;
17985;SDS011;9118;48.122;11.546;2023-03-11T05:53:26;1.33;;;1.23;;
17985;SDS011;9118;48.122;11.546;2023-03-11T05:55:54;3.43;;;1.80;;
17985;SDS011;9118;48.122;11.546;2023-03-11T05:58:22;2.30;;;1.70;;
17985;SDS011;9118;48.122;11.546;2023-03-11T06:00:49;3.03;;;1.60;;
17985;SDS011;9118;48.122;11.546;2023-03-11T06:03:17;2.43;;;1.50;;
17985;SDS011;9118;48.122;11.546;2023-03-11T06:05:45;3.20;;;1.60;;
17985;SDS011;9118;48.122;11.546;2023-03-11T06:08:14;2.60;;;1.40;;
17985;SDS011;9118;48.122;11.546;2023-03-11T06:10:42;1.50;;;1.40;;
17985;SDS011;9118;48.122;11.546;2023-03-11T06:13:09;1.90;;;1.60;;
17985;SDS011;9118;48.122;11.546;2023-03-11T06:15:42;5.30;;;1.50;;
17985;SDS011;9118;48.122;11.546;2023-03-11T06:18:10;2.33;;;1.77;;
17985;SDS011;9118;48.122;11.546;2023-03-11T06:20:37;1.63;;;1.40;;
17985;SDS011;9118;48.122;11.546;2023-03-11T06:23:04;4.87;;;1.80;;
17985;SDS011;9118;48.122;11.546;2023-03-11T06:25:33;2.67;;;1.60;;
17985;SDS011;9118;48.122;11.546;2023-03-11T06:28:00;1.83;;;1.67;;
17985;SDS011;9118;48.122;11.546;2023-03-11T06:30:28;1.97;;;1.60;;
17985;SDS011;9118;48.122;11.546;2023-03-11T06:32:55;2.33;;;1.40;;
17985;SDS011;9118;48.122;11.546;2023-03-11T06:35:22;3.20;;;1.60;;
17985;SDS011;9118;48.122;11.546;2023-03-11T06:37:51;2.23;;;1.60;;
17985;SDS011;9118;48.122;11.546;2023-03-11T06:40:19;4.37;;;1.60;;
17985;SDS011;9118;48.122;11.546;2023-03-11T06:42:48;5.77;;;1.67;;
17985;SDS011;9118;48.122;11.546;2023-03-11T06:45:18;2.67;;;1.47;;
17985;SDS011;9118;48.122;11.546;2023-03-11T06:47:45;3.33;;;1.80;;
17985;SDS011;9118;48.122;11.546;2023-03-11T06:50:13;1.50;;;1.40;;
17985;SDS011;9118;48.122;11.546;2023-03-11T06:52:41;2.30;;;1.60;;
17985;SDS011;9118;48.122;11.546;2023-03-11T06:55:08;1.70;;;1.60;;
17985;SDS011;9118;48.122;11.546;2023-03-11T06:57:38;4.23;;;1.87;;
17985;SDS011;9118;48.122;11.546;2023-03-11T07:00:11;1.73;;;1.60;;
17985;SDS011;9118;48.122;11.546;2023-03-11T07:02:39;1.77;;;1.67;;
17985;SDS011;9118;48.122;11.546;2023-03-11T07:05:13;2.60;;;2.30;;
17985;SDS011;9118;48.122;11.546;2023-03-11T07:07:44;2.37;;;2.10;;
17985;SDS011;9118;48.122;11.546;2023-03-11T07:10:13;3.30;;;1.80;;
17985;SDS011;9118;48.122;11.546;2023-03-11T07:12:40;1.90;;;1.70;;
17985;SDS011;9118;48.122;11.546;2023-03-11T07:15:11;2.00;;;1.80;;
17985;SDS011;9118;48.122;11.546;2023-03-11T07:17:39;2.33;;;1.97;;
17985;SDS011;9118;48.122;11.546;2023-03-11T07:20:07;2.87;;;2.10;;
17985;SDS011;9118;48.122;11.546;2023-03-11T07:22:37;2.83;;;2.03;;
17985;SDS011;9118;48.122;11.546;2023-03-11T07:25:04;2.90;;;2.13;;
17985;SDS011;9118;48.122;11.546;2023-03-11T07:27:33;2.60;;;2.40;;
17985;SDS011;9118;48.122;11.546;2023-03-11T07:30:00;2.33;;;2.13;;
17985;SDS011;9118;48.122;11.546;2023-03-11T07:32:29;2.87;;;2.17;;
17985;SDS011;9118;48.122;11.546;2023-03-11T07:34:56;3.33;;;2.40;;
17985;SDS011;9118;48.122;11.546;2023-03-11T07:37:23;2.77;;;1.97;;
17985;SDS011;9118;48.122;11.546;2023-03-11T07:39:51;2.60;;;2.30;;
17985;SDS011;9118;48.122;11.546;2023-03-11T07:42:18;3.53;;;2.20;;
17985;SDS011;9118;48.122;11.546;2023-03-11T07:44:49;3.43;;;2.63;;
17985;SDS011;9118;48.122;11.546;2023-03-11T07:47:16;4.57;;;3.43;;
17985;SDS011;9118;48.122;11.546;2023-03-11T07:49:46;2.53;;;2.13;;
17985;SDS011;9118;48.122;11.546;2023-03-11T07:52:14;2.50;;;2.30;;
17985;SDS011;9118;48.122;11.546;2023-03-11T07:54:41;5.43;;;2.63;;
17985;SDS011;9118;48.122;11.546;2023-03-11T07:57:09;3.13;;;2.30;;
17985;SDS011;9118;48.122;11.546;2023-03-11T07:59:41;3.93;;;2.40;;
17985;SDS011;9118;48.122;11.546;2023-03-11T08:02:09;4.03;;;2.10;;
17985;SDS011;9118;48.122;11.546;2023-03-11T08:04:39;3.30;;;2.50;;
17985;SDS011;9118;48.122;11.546;2023-03-11T08:07:09;6.70;;;3.07;;
17985;SDS011;9118;48.122;11.546;2023-03-11T08:09:41;2.93;;;2.50;;
17985;SDS011;9118;48.122;11.546;2023-03-11T08:12:09;2.63;;;1.97;;
17985;SDS011;9118;48.122;11.546;2023-03-11T08:14:36;3.03;;;2.03;;
17985;SDS011;9118;48.122;11.546;2023-03-11T08:17:05;4.10;;;2.07;;
17985;SDS011;9118;48.122;11.546;2023-03-11T08:19:33;2.30;;;2.10;;
17985;SDS011;9118;48.122;11.546;2023-03-11T08:22:00;2.87;;;2.23;;
17985;SDS011;9118;48.122;11.546;2023-03-11T08:24:29;2.47;;;2.20;;
17985;SDS011;9118;48.122;11.546;2023-03-11T08:26:56;2.20;;;2.00;;
17985;SDS011;9118;48.122;11.546;2023-03-11T08:29:23;3.60;;;2.30;;
17985;SDS011;9118;48.122;11.546;2023-03-11T08:31:50;2.07;;;1.90;;
17985;SDS011;9118;48.122;11.546;2023-03-11T08:34:18;3.43;;;2.30;;
17985;SDS011;9118;48.122;11.546;2023-03-11T08:36:46;5.23;;;2.40;;
17985;SDS011;9118;48.122;11.546;2023-03-11T08:39:13;3.40;;;2.37;;
17985;SDS011;9118;48.122;11.546;2023-03-11T08:41:42;2.40;;;2.20;;
17985;SDS011;9118;48.122;11.546;2023-03-11T08:44:09;5.73;;;3.40;;
17985;SDS011;9118;48.122;11.546;2023-03-11T08:46:37;2.30;;;2.10;;
17985;SDS011;9118;48.122;11.546;2023-03-11T08:49:06;2.50;;;2.30;;
17985;SDS011;9118;48.122;11.546;2023-03-11T08:51:35;2.00;;;1.90;;
17985;SDS011;9118;48.122;11.546;2023-03-11T08:54:03;2.00;;;1.90;;
17985;SDS011;9118;48.122;11.546;2023-03-11T08:56:30;3.00;;;2.30;;
17985;SDS011;9118;48.122;11.546;2023-03-11T08:58:59;3.33;;;2.40;;
17985;SDS011;9118;48.122;11.546;2023-03-11T09:01:27;3.90;;;2.10;;
17985;SDS011;9118;48.122;11.546;2023-03-11T09:03:54;4.00;;;2.07;;
17985;SDS011;9118;48.122;11.546;2023-03-11T09:06:21;2.07;;;1.80;;
17985;SDS011;9118;48.122;11.546;2023-03-11T09:08:49;5.23;;;1.93;;
17985;SDS011;9118;48.122;11.546;2023-03-11T09:11:17;2.50;;;2.00;;
17985;SDS011;9118;48.122;11.546;2023-03-11T09:13:46;4.73;;;2.10;;
17985;SDS011;9118;48.122;11.546;2023-03-11T09:16:16;4.70;;;2.00;;
17985;SDS011;9118;48.122;11.546;2023-03-11T09:18:46;2.37;;;1.97;;
17985;SDS011;9118;48.122;11.546;2023-03-11T09:21:13;3.90;;;2.23;;
17985;SDS011;9118;48.122;11.546;2023-03-11T09:23:40;2.33;;;1.90;;
17985;SDS011;9118;48.122;11.546;2023-03-11T09:26:12;2.70;;;1.90;;
17985;SDS011;9118;48.122;11.546;2023-03-11T09:28:40;2.17;;;2.00;;
17985;SDS011;9118;48.122;11.546;2023-03-11T09:31:07;4.33;;;1.73;;
17985;SDS011;9118;48.122;11.546;2023-03-11T09:33:36;2.03;;;1.83;;
17985;SDS011;9118;48.122;11.546;2023-03-11T09:36:05;2.00;;;1.80;;
17985;SDS011;9118;48.122;11.546;2023-03-11T09:38:33;1.70;;;1.60;;
17985;SDS011;9118;48.122;11.546;2023-03-11T09:41:01;3.23;;;1.57;;
17985;SDS011;9118;48.122;11.546;2023-03-11T09:43:45;2.20;;;1.53;;
17985;SDS011;9118;48.122;11.546;2023-03-11T09:46:27;2.43;;;1.90;;
17985;SDS011;9118;48.122;11.546;2023-03-11T09:49:12;1.80;;;1.70;;
17985;SDS011;9118;48.122;11.546;2023-03-11T09:51:47;2.57;;;1.70;;
17985;SDS011;9118;48.122;11.546;2023-03-11T09:54:23;2.03;;;1.80;;
17985;SDS011;9118;48.122;11.546;2023-03-11T09:56:53;5.07;;;1.73;;
17985;SDS011;9118;48.122;11.546;2023-03-11T09:59:22;3.77;;;1.80;;
17985;SDS011;9118;48.122;11.546;2023-03-11T10:01:56;1.77;;;1.30;;
17985;SDS011;9118;48.122;11.546;2023-03-11T10:04:29;2.33;;;1.50;;
17985;SDS011;9118;48.122;11.546;2023-03-11T10:06:59;2.47;;;1.50;;
17985;SDS011;9118;48.122;11.546;2023-03-11T10:09:30;1.70;;;1.50;;
17985;SDS011;9118;48.122;11.546;2023-03-11T10:12:04;1.87;;;1.50;;
17985;SDS011;9118;48.122;11.546;2023-03-11T10:14:47;1.73;;;1.50;;
17985;SDS011;9118;48.122;11.546;2023-03-11T10:17:34;2.30;;;1.63;;
17985;SDS011;9118;48.122;11.546;2023-03-11T10:20:13;1.67;;;1.57;;
17985;SDS011;9118;48.122;11.546;2023-03-11T10:22:46;1.87;;;1.70;;
17985;SDS011;9118;48.122;11.546;2023-03-11T10:25:21;1.90;;;1.30;;
17985;SDS011;9118;48.122;11.546;2023-03-11T10:27:54;1.50;;;1.20;;
17985;SDS011;9118;48.122;11.546;2023-03-11T10:30:28;2.53;;;1.70;;
17985;SDS011;9118;48.122;11.546;2023-03-11T10:33:00;3.53;;;1.50;;
17985;SDS011;9118;48.122;11.546;2023-03-11T10:35:35;7.20;;;2.87;;
17985;SDS011;9118;48.122;11.546;2023-03-11T10:38:06;2.10;;;1.40;;
17985;SDS011;9118;48.122;11.546;2023-03-11T10:40:40;4.23;;;1.90;;
17985;SDS011;9118;48.122;11.546;2023-03-11T10:43:10;2.47;;;1.80;;
17985;SDS011;9118;48.122;11.546;2023-03-11T10:45:40;2.90;;;1.50;;
17985;SDS011;9118;48.122;11.546;2023-03-11T10:48:10;1.30;;;1.20;;
17985;SDS011;9118;48.122;11.546;2023-03-11T10:50:44;2.57;;;1.53;;
17985;SDS011;9118;48.122;11.546;2023-03-11T10:53:15;1.63;;;1.47;;
17985;SDS011;9118;48.122;11.546;2023-03-11T10:55:45;1.03;;;1.03;;
17985;SDS011;9118;48.122;11.546;2023-03-11T10:58:14;1.90;;;1.70;;
17985;SDS011;9118;48.122;11.546;2023-03-11T11:00:43;1.50;;;1.40;;
17985;SDS011;9118;48.122;11.546;2023-03-11T11:03:15;1.67;;;1.57;;
17985;SDS011;9118;48.122;11.546;2023-03-11T11:05:57;2.53;;;1.50;;
17985;SDS011;9118;48.122;11.546;2023-03-11T11:08:26;2.07;;;1.50;;
17985;SDS011;9118;48.122;11.546;2023-03-11T11:10:54;1.67;;;1.43;;
17985;SDS011;9118;48.122;11.546;2023-03-11T11:13:22;2.33;;;1.20;;
17985;SDS011;9118;48.122;11.546;2023-03-11T11:15:51;2.60;;;1.40;;
17985;SDS011;9118;48.122;11.546;2023-03-11T11:18:22;1.53;;;1.43;;
17985;SDS011;9118;48.122;11.546;2023-03-11T11:20:52;2.83;;;1.90;;
17985;SDS011;9118;48.122;11.546;2023-03-11T11:23:31;1.50;;;1.40;;
17985;SDS011;9118;48.122;11.546;2023-03-11T11:26:13;1.70;;;1.60;;
17985;SDS011;9118;48.122;11.546;2023-03-11T11:28:42;4.90;;;1.77;;
17985;SDS011;9118;48.122;11.546;2023-03-11T11:31:21;2.40;;;1.90;;
17985;SDS011;9118;48.122;11.546;2023-03-11T11:33:49;3.90;;;1.77;;
17985;SDS011;9118;48.122;11.546;2023-03-11T11:36:19;1.90;;;1.80;;
17985;SDS011;9118;48.122;11.546;2023-03-11T11:38:50;4.93;;;1.77;;
17985;SDS011;9118;48.122;11.546;2023-03-11T11:41:20;5.50;;;1.97;;
17985;SDS011;9118;48.122;11.546;2023-03-11T11:43:49;1.63;;;1.53;;
17985;SDS011;9118;48.122;11.546;2023-03-11T11:46:22;1.53;;;1.40;;
17985;SDS011;9118;48.122;11.546;2023-03-11T11:48:55;1.90;;;1.60;;
17985;SDS011;9118;48.122;11.546;2023-03-11T11:51:32;1.70;;;1.50;;
17985;SDS011;9118;48.122;11.546;2023-03-11T11:54:06;2.40;;;1.73;;
17985;SDS011;9118;48.122;11.546;2023-03-11T11:56:41;2.57;;;1.60;;
17985;SDS011;9118;48.122;11.546;2023-03-11T11:59:10;1.80;;;1.70;;
17985;SDS011;9118;48.122;11.546;2023-03-11T12:01:44;2.80;;;1.70;;
17985;SDS011;9118;48.122;11.546;2023-03-11T12:07:17;2.30;;;1.50;;
17985;SDS011;9118;48.122;11.546;2023-03-11T12:10:08;1.70;;;1.57;;
17985;SDS011;9118;48.122;11.546;2023-03-11T12:12:45;2.40;;;1.47;;
17985;SDS011;9118;48.122;11.546;2023-03-11T12:15:23;3.17;;;2.00;;
17985;SDS011;9118;48.122;11.546;2023-03-11T12:17:55;6.47;;;2.03;;
17985;SDS011;9118;48.122;11.546;2023-03-11T12:20:29;3.37;;;1.80;;
17985;SDS011;9118;48.122;11.546;2023-03-11T12:25:56;1.83;;;1.73;;
17985;SDS011;9118;48.122;11.546;2023-03-11T12:28:34;2.33;;;1.83;;
17985;SDS011;9118;48.122;11.546;2023-03-11T12:31:06;2.77;;;1.60;;
17985;SDS011;9118;48.122;11.546;2023-03-11T12:33:35;3.47;;;2.00;;
17985;SDS011;9118;48.122;11.546;2023-03-11T12:36:05;2.57;;;1.80;;
17985;SDS011;9118;48.122;11.546;2023-03-11T12:38:46;3.27;;;2.03;;
17985;SDS011;9118;48.122;11.546;2023-03-11T12:41:26;2.20;;;2.00;;
17985;SDS011;9118;48.122;11.546;2023-03-11T12:43:59;1.87;;;1.77;;
17985;SDS011;9118;48.122;11.546;2023-03-11T12:49:43;2.40;;;2.03;;
17985;SDS011;9118;48.122;11.546;2023-03-11T12:52:18;4.10;;;1.97;;
17985;SDS011;9118;48.122;11.546;2023-03-11T12:55:22;2.17;;;1.80;;
17985;SDS011;9118;48.122;11.546;2023-03-11T12:57:52;3.40;;;1.90;;
17985;SDS011;9118;48.122;11.546;2023-03-11T13:00:27;2.43;;;1.93;;
17985;SDS011;9118;48.122;11.546;2023-03-11T13:05:59;2.37;;;2.10;;
17985;SDS011;9118;48.122;11.546;2023-03-11T13:08:42;2.60;;;2.07;;
17985;SDS011;9118;48.122;11.546;2023-03-11T13:14:15;1.83;;;1.73;;
17985;SDS011;9118;48.122;11.546;2023-03-11T13:16:53;6.40;;;2.67;;
17985;SDS011;9118;48.122;11.546;2023-03-11T13:19:32;1.80;;;1.70;;
17985;SDS011;9118;48.122;11.546;2023-03-11T13:25:27;2.10;;;1.83;;
17985;SDS011;9118;48.122;11.546;2023-03-11T13:27:59;1.93;;;1.83;;
17985;SDS011;9118;48.122;11.546;2023-03-11T13:30:41;1.70;;;1.60;;
17985;SDS011;9118;48.122;11.546;2023-03-11T13:33:17;2.23;;;2.00;;
17985;SDS011;9118;48.122;11.546;2023-03-11T13:35:59;2.90;;;1.80;;
17985;SDS011;9118;48.122;11.546;2023-03-11T13:41:35;2.23;;;2.00;;
17985;SDS011;9118;48.122;11.546;2023-03-11T13:44:11;2.00;;;1.90;;
17985;SDS011;9118;48.122;11.546;2023-03-11T13:46:46;4.13;;;2.10;;
17985;SDS011;9118;48.122;11.546;2023-03-11T13:49:22;3.37;;;2.10;;
17985;SDS011;9118;48.122;11.546;2023-03-11T13:51:53;2.20;;;1.70;;
17985;SDS011;9118;48.122;11.546;2023-03-11T13:54:37;3.53;;;2.00;;
17985;SDS011;9118;48.122;11.546;2023-03-11T13:57:14;2.87;;;2.03;;
17985;SDS011;9118;48.122;11.546;2023-03-11T13:59:52;2.27;;;1.80;;
17985;SDS011;9118;48.122;11.546;2023-03-11T14:02:21;2.97;;;2.07;;
17985;SDS011;9118;48.122;11.546;2023-03-11T14:04:52;1.60;;;1.50;;
17985;SDS011;9118;48.122;11.546;2023-03-11T14:07:23;1.93;;;1.83;;
17985;SDS011;9118;48.122;11.546;2023-03-11T14:12:44;2.10;;;1.90;;
17985;SDS011;9118;48.122;11.546;2023-03-11T14:15:13;2.00;;;1.83;;
17985;SDS011;9118;48.122;11.546;2023-03-11T14:17:44;2.23;;;2.03;;
17985;SDS011;9118;48.122;11.546;2023-03-11T14:20:12;3.07;;;1.97;;
17985;SDS011;9118;48.122;11.546;2023-03-11T14:22:44;2.40;;;2.07;;
17985;SDS011;9118;48.122;11.546;2023-03-11T14:25:15;3.23;;;2.17;;
17985;SDS011;9118;48.122;11.546;2023-03-11T14:27:50;2.20;;;2.00;;
17985;SDS011;9118;48.122;11.546;2023-03-11T14:30:22;2.30;;;2.10;;
17985;SDS011;9118;48.122;11.546;2023-03-11T14:32:54;3.13;;;2.10;;
17985;SDS011;9118;48.122;11.546;2023-03-11T14:35:23;3.70;;;2.20;;
17985;SDS011;9118;48.122;11.546;2023-03-11T14:37:50;4.90;;;2.00;;
17985;SDS011;9118;48.122;11.546;2023-03-11T14:40:22;3.00;;;2.00;;
17985;SDS011;9118;48.122;11.546;2023-03-11T14:42:52;3.50;;;2.20;;
17985;SDS011;9118;48.122;11.546;2023-03-11T14:45:23;2.20;;;2.00;;
17985;SDS011;9118;48.122;11.546;2023-03-11T14:47:54;3.40;;;2.30;;
17985;SDS011;9118;48.122;11.546;2023-03-11T14:50:26;2.10;;;1.70;;
17985;SDS011;9118;48.122;11.546;2023-03-11T14:52:57;4.50;;;1.93;;
17985;SDS011;9118;48.122;11.546;2023-03-11T14:55:29;4.77;;;2.50;;
17985;SDS011;9118;48.122;11.546;2023-03-11T14:57:59;3.77;;;2.30;;
17985;SDS011;9118;48.122;11.546;2023-03-11T15:00:31;2.97;;;2.13;;
17985;SDS011;9118;48.122;11.546;2023-03-11T15:03:01;2.40;;;2.20;;
17985;SDS011;9118;48.122;11.546;2023-03-11T15:05:40;2.53;;;2.13;;
17985;SDS011;9118;48.122;11.546;2023-03-11T15:08:11;2.73;;;2.00;;
17985;SDS011;9118;48.122;11.546;2023-03-11T15:10:39;2.60;;;2.40;;
17985;SDS011;9118;48.122;11.546;2023-03-11T15:13:25;2.27;;;2.10;;
17985;SDS011;9118;48.122;11.546;2023-03-11T15:15:57;4.77;;;2.17;;
17985;SDS011;9118;48.122;11.546;2023-03-11T15:18:28;2.80;;;2.20;;
17985;SDS011;9118;48.122;11.546;2023-03-11T15:21:00;2.70;;;2.20;;
17985;SDS011;9118;48.122;11.546;2023-03-11T15:23:33;2.53;;;2.20;;
17985;SDS011;9118;48.122;11.546;2023-03-11T15:26:01;4.17;;;2.20;;
17985;SDS011;9118;48.122;11.546;2023-03-11T15:28:31;4.43;;;2.60;;
17985;SDS011;9118;48.122;11.546;2023-03-11T15:33:55;3.27;;;2.50;;